To NAV CANADA Home Page Login to a new session Search on AWWS site Feedback and Comments Disclaimer Vers la page française équivalente Tips FAQ What's new on the site To the Forecasts and Observations / NOTAM section To "File a Flight Plan" website Publications and other links Update of the User's profile FIC Telephone Numbers My Weather Data Folder Route Weather Data Regional Weather Data Local Weather Data To the Forecasts and Observations / NOTAM section
Request Generated 04/23/2014 at 17:31:02 UTC . Weather information available at that time is displayed.

METAR/TAF

MONTREAL/PIERRE-ELLIOTT-TRUDEAU INTL/QC    

METAR CYUL 231700Z 33014G22KT 15SM BKN045 BKN210 11/M00 A2962 RMK
SC6CI1 SLP031=
METAR CYUL 231600Z 32013G24KT 15SM BKN045 BKN100 OVC240 11/00 A2962
RMK SC5AC1CI2 SLP031=
METAR CYUL 231500Z 29013KT 15SM SCT040 BKN120 BKN240 10/02 A2962 RMK
SC4AC1CI2 SLP032=

TAF CYUL 231438Z 2315/2412 28012G22KT P6SM FEW060 SCT160 TEMPO
2315/2324 BKN060
BECMG 2315/2317 32015G25KT
FM240000 31015KT P6SM BKN040
FM241100 30012KT P6SM FEW040
RMK NXT FCST BY 231800Z=
Your time UTC time
Weather data provided by Environment Canada and NAV CANADA